Данни от 24.09.2018 г. 08:56:01

Температура вътрешна: 24.1 °C
Температура външна: 19.8 °C
Атмосферно налягане: 993.8 hPa
Атмосферно налягане на морско равнище: 1011.5 hPa
Влажност: 53.8 %



История от последните 24 часа

Дата и часTin [°C]P [hPa]Psl [hPa]H [%]Tout [°C]
   24.09.2018 г. 08:30:01      24.0      994.2      1012.0      54.4      19.0   
   24.09.2018 г. 08:00:00      23.9      994.3      1012.1      53.1      18.5   
   24.09.2018 г. 07:30:01      23.8      994.4      1012.2      52.6      18.4   
   24.09.2018 г. 07:00:01      23.6      994.7      1012.5      52.4      18.3   
   24.09.2018 г. 06:30:00      23.5      994.9      1012.7      52.1      18.3   
   24.09.2018 г. 06:00:01      23.7      995.3      1013.1      52.8      18.4   
   24.09.2018 г. 05:30:00      23.6      995.7      1013.5      52.2      18.4   
   24.09.2018 г. 05:00:01      23.8      996.0      1013.8      52.0      18.6   
   24.09.2018 г. 04:30:00      23.9      996.4      1014.2      52.4      18.8   
   24.09.2018 г. 04:00:01      24.0      996.8      1014.6      51.5      19.0   
   24.09.2018 г. 03:30:00      24.2      997.3      1015.1      51.2      19.4   
   24.09.2018 г. 03:00:01      24.4      997.8      1015.6      50.7      19.5   
   24.09.2018 г. 02:30:00      24.7      998.3      1016.1      50.6      19.9   
   24.09.2018 г. 02:00:01      25.4      998.7      1016.5      53.8      20.1   
   24.09.2018 г. 01:30:00      25.5      999.1      1016.9      53.8      20.1   
   24.09.2018 г. 01:00:01      25.4      999.4      1017.2      53.9      19.6   
   24.09.2018 г. 00:30:00      25.3      999.7      1017.6      53.6      21.0   
   24.09.2018 г. 00:00:01      25.2      1000.0      1017.8      53.7      21.4   
   23.09.2018 г. 23:30:00      25.1      1000.2      1018.1      53.3      21.5   
   23.09.2018 г. 23:00:01      25.0      1000.4      1018.3      53.1      21.1   
   23.09.2018 г. 22:30:00      24.7      1000.7      1018.5      54.2      21.5   
   23.09.2018 г. 22:00:01      24.7      1000.8      1018.7      54.2      21.6   
   23.09.2018 г. 21:30:00      24.6      1000.9      1018.7      53.9      21.9   
   23.09.2018 г. 21:00:01      24.6      1000.9      1018.8      54.3      22.1   
   23.09.2018 г. 20:30:00      24.6      1001.0      1018.9      52.7      22.6   
   23.09.2018 г. 20:00:01      24.6      1001.0      1018.8      52.2      23.5   
   23.09.2018 г. 19:30:01      24.7      1000.9      1018.8      52.7      24.5   
   23.09.2018 г. 19:00:01      24.6      1000.9      1018.7      52.3      27.6   
   23.09.2018 г. 18:30:00      24.5      1000.7      1018.6      52.4      30.8   
   23.09.2018 г. 18:00:01      24.5      1000.8      1018.7      51.1      31.6   
   23.09.2018 г. 17:30:01      24.4      1000.8      1018.6      50.7      32.6   
   23.09.2018 г. 17:00:00      24.5      1000.8      1018.7      50.2      33.6   
   23.09.2018 г. 16:30:01      24.4      1001.0      1018.9      50.0      33.2   
   23.09.2018 г. 16:00:00      24.5      1001.1      1019.0      49.5      32.0   
   23.09.2018 г. 15:30:01      24.6      1001.3      1019.2      50.2      30.8   
   23.09.2018 г. 15:00:00      24.5      1001.7      1019.6      49.6      29.6   
   23.09.2018 г. 14:30:01      24.4      1002.1      1020.0      49.4      28.4   
   23.09.2018 г. 14:00:00      24.3      1002.3      1020.2      49.1      27.2   
   23.09.2018 г. 13:30:01      24.3      1002.6      1020.5      49.4      26.0   
   23.09.2018 г. 13:00:00      24.0      1002.8      1020.7      49.2      25.3   
   23.09.2018 г. 12:30:01      24.0      1002.7      1020.6      49.0      24.5   
   23.09.2018 г. 12:00:00      23.9      1002.9      1020.8      48.3      23.8   
   23.09.2018 г. 11:30:01      24.0      1003.2      1021.2      49.0      23.0   
   23.09.2018 г. 11:00:00      23.9      1003.2      1021.1      49.3      22.1   
   23.09.2018 г. 10:30:01      23.9      1003.1      1021.0      49.8      21.4   
   23.09.2018 г. 10:00:00      23.8      1002.9      1020.8      49.3      20.9   
   23.09.2018 г. 09:30:01      23.7      1002.7      1020.6      50.1      20.0   
   23.09.2018 г. 09:00:00      23.6      1002.7      1020.6      49.9      18.4   

BaroSL graphic

TEMPE graphic